KRHI/RHI METAR and TAF weather

Enter ICAO airport designator
Station Type Date Time Source
KRHI METAR 2022/11/30 16:53 UTC NOAA

KRHI 301653Z AUTO 27021G30KT 4SM -SN BKN022 OVC030 M07/M10 A2969 RMK AO2 PK WND 28033/1606 SLP078 P0000 T10671100


Station Type Date Time Source
KRHI Decoded METAR 2022/11/30 16:53 UTC NOAA

RHINELANDER-ONEIDA CO AIRPORT , WI, United States (KRHI) 45-38N 89-29W 485M
Nov 30, 2022 - 11:53 AM EST / 2022.11.30 1653 UTC
Wind: from the W (270 degrees) at 24 MPH (21 KT) gusting to 35 MPH (30 KT):0
Visibility: 4 mile(s):0
Sky conditions: overcast
Weather: light snow
Precipitation last hour: A trace
Temperature: 19.9 F (-6.7 C)
Windchill: 3 F (-16 C):1
Dew Point: 14.0 F (-10.0 C)
Relative Humidity: 77%
Pressure (altimeter): 29.69 in. Hg (1005 hPa)
ob: KRHI 301653Z AUTO 27021G30KT 4SM -SN BKN022 OVC030 M07/M10 A2969 RMK AO2 PK WND 28033/1606 SLP078 P0000 T10671100
cycle: 17

Station Type Date Time Source
KRHI TAF 2022/11/30 15:09 UTC NOAA

TAF
AMD KRHI 301507Z 3015/0112 27020G30KT P6SM -SHSN OVC028
TEMPO 3015/3018 3SM -SHSN
FM301800 28019G33KT P6SM -SHSN OVC030
FM302200 28016G29KT P6SM BKN025
FM010200 28013G23KT P6SM SCT030
FM010800 27007KT P6SM SCT030

Example: see airport list